Time;durP1;ratioP1;P1;durP2;ratioP2;P2;SDS_P1;SDS_P2;PMS_P1;PMS_P2;Temp;Humidity;BMP_temperature;BMP_pressure;BME280_temperature;BME280_humidity;BME280_pressure;Samples;Min_cycle;Max_cycle;Signal;HPM_P1;HPM_P2
2023/08/25 00:00:57;;;;;;;34.70;19.80;;;19.50;99.90;;;;;;5050480;28;20270;-89
2023/08/25 00:03:23;;;;;;;37.97;17.57;;;19.50;99.90;;;;;;5068462;28;20420;-87
2023/08/25 00:05:53;;;;;;;29.60;16.83;;;19.50;99.90;;;;;;5069182;28;20184;-86
2023/08/25 00:08:19;;;;;;;32.83;17.83;;;19.50;99.90;;;;;;5068371;28;20348;-87
2023/08/25 00:10:45;;;;;;;30.60;16.87;;;19.50;99.90;;;;;;5050791;28;20224;-89
2023/08/25 00:13:12;;;;;;;28.90;15.30;;;19.40;99.90;;;;;;5050563;28;20209;-89
2023/08/25 00:15:40;;;;;;;31.70;18.43;;;19.40;99.90;;;;;;5068269;28;20177;-87
2023/08/25 00:18:06;;;;;;;26.63;17.00;;;19.40;99.90;;;;;;5069201;28;20173;-87
2023/08/25 00:20:31;;;;;;;42.70;21.43;;;19.40;99.90;;;;;;5050617;28;20240;-87
2023/08/25 00:22:57;;;;;;;33.40;18.93;;;19.40;99.90;;;;;;5068158;28;20555;-86
2023/08/25 00:25:23;;;;;;;28.87;16.77;;;19.50;99.90;;;;;;5050674;28;20220;-88
2023/08/25 00:27:49;;;;;;;33.77;18.00;;;19.50;99.90;;;;;;5068016;28;20208;-90
2023/08/25 00:30:15;;;;;;;37.83;20.67;;;19.50;99.90;;;;;;5068360;28;20623;-89
2023/08/25 00:32:40;;;;;;;40.30;19.70;;;19.50;99.90;;;;;;5050635;28;20212;-86
2023/08/25 00:35:07;;;;;;;41.17;19.13;;;19.50;99.90;;;;;;5068231;28;20217;-90
2023/08/25 00:37:33;;;;;;;37.33;18.03;;;19.50;99.90;;;;;;5068235;28;20232;-87
2023/08/25 00:39:58;;;;;;;40.03;19.23;;;19.60;99.90;;;;;;5068255;28;20686;-89
2023/08/25 00:42:24;;;;;;;37.80;19.77;;;19.50;99.90;;;;;;5034130;28;20331;-89
2023/08/25 00:44:50;;;;;;;50.13;20.77;;;19.60;99.90;;;;;;5068573;28;20619;-86
2023/08/25 00:47:17;;;;;;;47.40;20.20;;;19.50;99.90;;;;;;5050638;28;20316;-86
2023/08/25 00:49:43;;;;;;;46.17;22.77;;;19.50;99.90;;;;;;5050923;28;20249;-88
2023/08/25 00:52:10;;;;;;;46.27;22.23;;;19.50;99.90;;;;;;5034093;28;20295;-86
2023/08/25 00:54:37;;;;;;;47.97;22.43;;;19.50;99.90;;;;;;5050793;28;20688;-89
2023/08/25 00:57:04;;;;;;;54.13;23.23;;;19.50;99.90;;;;;;5069110;28;20188;-91
2023/08/25 00:59:31;;;;;;;52.47;24.90;;;19.50;99.90;;;;;;5068452;28;20217;-89
2023/08/25 01:01:57;;;;;;;54.23;25.27;;;19.60;99.90;;;;;;5068308;28;20448;-88
2023/08/25 01:04:22;;;;;;;60.17;23.93;;;19.60;99.90;;;;;;5068575;28;20874;-90
2023/08/25 01:06:48;;;;;;;59.50;27.70;;;19.60;99.90;;;;;;5050667;28;20205;-86
2023/08/25 01:09:15;;;;;;;57.87;27.87;;;19.70;99.90;;;;;;5068577;28;20229;-86
2023/08/25 01:11:55;;;;;;;65.60;27.50;;;19.70;99.90;;;;;;5033440;28;20708;-88
2023/08/25 01:14:26;;;;;;;50.97;25.97;;;19.80;99.90;;;;;;5068156;28;20240;-90
2023/08/25 01:17:04;;;;;;;60.03;27.87;;;19.80;99.90;;;;;;5068101;28;20259;-91
2023/08/25 01:19:53;;;;;;;66.60;28.97;;;19.80;99.90;;;;;;5068317;28;20217;-90
2023/08/25 01:22:59;;;;;;;55.50;27.43;;;19.80;99.90;;;;;;5051094;28;20256;-90
2023/08/25 01:25:29;;;;;;;59.90;29.13;;;19.90;99.90;;;;;;5027875;28;20220;-90
2023/08/25 01:28:00;;;;;;;60.33;29.87;;;19.90;99.90;;;;;;5068189;28;20213;-88
2023/08/25 01:30:31;;;;;;;60.03;28.90;;;19.90;99.90;;;;;;5050461;28;20201;-90
2023/08/25 01:32:57;;;;;;;75.20;30.70;;;20.00;99.90;;;;;;5050586;28;20184;-86
2023/08/25 01:35:47;;;;;;;77.37;31.10;;;20.00;99.90;;;;;;5050282;28;20220;-87
2023/08/25 01:38:34;;;;;;;70.97;30.10;;;20.00;99.90;;;;;;5050535;28;20297;-90
2023/08/25 01:41:24;;;;;;;69.87;32.23;;;20.00;99.90;;;;;;5052393;28;20221;-90
2023/08/25 01:43:51;;;;;;;72.73;32.60;;;20.00;99.90;;;;;;5054022;28;20319;-89
2023/08/25 01:46:18;;;;;;;66.90;31.17;;;20.00;99.90;;;;;;5054156;28;20208;-89
2023/08/25 01:48:47;;;;;;;79.97;32.67;;;20.10;99.90;;;;;;5071196;28;20213;-88
2023/08/25 01:51:15;;;;;;;83.73;33.00;;;20.00;99.90;;;;;;5054204;28;20205;-85
2023/08/25 01:53:44;;;;;;;73.33;32.20;;;20.10;99.90;;;;;;5071388;28;20212;-85
2023/08/25 01:56:10;;;;;;;75.73;32.40;;;20.00;99.90;;;;;;5053397;28;20296;-89
2023/08/25 01:58:36;;;;;;;72.90;32.93;;;20.00;99.90;;;;;;5053380;28;20616;-88
2023/08/25 02:01:03;;;;;;;74.50;33.77;;;20.10;99.90;;;;;;5071060;28;20221;-86
2023/08/25 02:03:29;;;;;;;66.10;29.77;;;20.10;99.90;;;;;;5053624;28;20693;-87
2023/08/25 02:05:54;;;;;;;65.67;29.80;;;20.10;99.90;;;;;;5037547;28;20169;-90
2023/08/25 02:08:20;;;;;;;72.80;31.00;;;20.10;99.90;;;;;;5071175;28;20233;-87
2023/08/25 02:10:46;;;;;;;63.97;30.77;;;20.10;99.90;;;;;;5053303;28;20241;-90
2023/08/25 02:13:13;;;;;;;60.90;30.87;;;20.10;99.90;;;;;;5053411;28;20282;-85
2023/08/25 02:15:46;;;;;;;64.57;31.07;;;20.10;99.90;;;;;;5070975;28;20836;-91
2023/08/25 02:18:12;;;;;;;58.77;28.73;;;20.10;99.90;;;;;;5071422;28;20212;-88
2023/08/25 02:20:39;;;;;;;60.90;27.87;;;20.10;99.90;;;;;;5053271;28;20213;-87
2023/08/25 02:23:05;;;;;;;69.20;28.20;;;20.10;99.90;;;;;;5070907;28;20223;-90
2023/08/25 02:25:31;;;;;;;67.23;28.50;;;20.10;99.90;;;;;;5070305;28;20213;-87
2023/08/25 02:27:57;;;;;;;59.63;27.33;;;20.10;99.90;;;;;;5053063;28;20209;-90
2023/08/25 02:30:23;;;;;;;57.67;26.90;;;20.00;99.90;;;;;;5053020;28;20611;-90
2023/08/25 02:32:49;;;;;;;57.87;27.70;;;20.10;99.90;;;;;;5053595;28;20185;-86
2023/08/25 02:35:15;;;;;;;52.53;27.83;;;20.10;99.90;;;;;;5070701;28;20217;-91
2023/08/25 02:38:00;;;;;;;48.40;25.20;;;20.10;99.90;;;;;;5052732;28;20228;-92
2023/08/25 02:40:27;;;;;;;58.93;28.00;;;20.10;99.90;;;;;;5070554;28;20678;-89
2023/08/25 02:42:54;;;;;;;56.43;26.93;;;20.10;99.90;;;;;;5036154;28;20223;-92
2023/08/25 02:45:23;;;;;;;60.53;25.37;;;20.10;99.90;;;;;;5070513;28;20231;-90
2023/08/25 02:47:49;;;;;;;58.67;26.03;;;20.00;99.90;;;;;;5071090;28;20173;-89
2023/08/25 02:50:15;;;;;;;51.17;25.47;;;20.00;99.90;;;;;;5070433;28;20240;-88
2023/08/25 02:52:41;;;;;;;47.07;24.93;;;20.00;99.90;;;;;;5069214;28;20411;-90
2023/08/25 02:55:07;;;;;;;56.97;26.67;;;20.00;99.90;;;;;;5052800;28;20216;-88
2023/08/25 02:57:32;;;;;;;47.77;25.50;;;19.90;99.90;;;;;;5035991;28;20529;-90
2023/08/25 02:59:58;;;;;;;53.57;26.27;;;19.90;99.90;;;;;;5036701;28;20222;-91
2023/08/25 03:02:24;;;;;;;48.87;26.00;;;19.80;99.90;;;;;;5070243;28;20578;-89
2023/08/25 03:04:50;;;;;;;52.53;27.20;;;19.90;99.90;;;;;;5052542;28;20785;-88
2023/08/25 03:07:15;;;;;;;51.23;25.80;;;19.90;99.90;;;;;;5066273;28;20959;-85
2023/08/25 03:09:41;;;;;;;51.20;27.83;;;19.90;99.90;;;;;;5032799;28;20220;-90
2023/08/25 03:12:07;;;;;;;52.27;25.90;;;20.00;99.90;;;;;;5050239;28;20794;-89
2023/08/25 03:14:33;;;;;;;39.30;22.80;;;20.00;99.90;;;;;;5032672;28;20205;-89
2023/08/25 03:16:58;;;;;;;45.97;27.20;;;20.00;99.90;;;;;;5031958;28;20354;-91
2023/08/25 03:19:27;;;;;;;48.53;26.47;;;20.00;99.90;;;;;;5050006;28;20238;-86
2023/08/25 03:21:53;;;;;;;54.20;27.57;;;20.00;99.90;;;;;;5032258;28;20381;-90
2023/08/25 03:24:19;;;;;;;44.53;24.70;;;20.00;99.90;;;;;;5032165;28;20182;-90
2023/08/25 03:26:47;;;;;;;47.27;28.70;;;20.00;99.90;;;;;;5032799;28;20193;-87
2023/08/25 03:29:13;;;;;;;57.33;26.23;;;19.90;99.90;;;;;;5032750;28;20270;-91
2023/08/25 03:31:39;;;;;;;50.40;24.80;;;19.90;99.90;;;;;;5049488;28;20260;-91
2023/08/25 03:34:04;;;;;;;48.93;23.13;;;19.90;99.90;;;;;;5032270;28;20233;-86
2023/08/25 03:36:33;;;;;;;61.70;25.00;;;19.80;99.90;;;;;;5033165;28;20189;-87
2023/08/25 03:38:59;;;;;;;45.27;24.03;;;19.80;99.90;;;;;;5033150;28;20251;-89
2023/08/25 03:41:25;;;;;;;42.73;24.30;;;19.80;99.90;;;;;;5031883;28;20301;-91
2023/08/25 03:43:50;;;;;;;48.90;24.30;;;19.80;99.90;;;;;;5032044;28;20218;-90
2023/08/25 03:46:16;;;;;;;38.47;22.60;;;19.70;99.90;;;;;;5031942;28;20213;-90
2023/08/25 03:48:42;;;;;;;42.77;24.30;;;19.70;99.90;;;;;;5015636;28;20213;-88
2023/08/25 03:51:07;;;;;;;44.37;23.90;;;19.70;99.90;;;;;;5032329;28;20209;-91
2023/08/25 03:53:35;;;;;;;51.37;25.80;;;19.70;99.90;;;;;;5049255;28;20221;-88
2023/08/25 03:56:01;;;;;;;44.33;23.97;;;19.70;99.90;;;;;;5031921;28;20210;-90
2023/08/25 03:58:27;;;;;;;41.50;23.23;;;19.70;99.90;;;;;;5049103;28;20209;-90
2023/08/25 04:00:56;;;;;;;38.23;20.43;;;19.60;99.90;;;;;;5031798;28;20232;-88
2023/08/25 04:03:22;;;;;;;32.20;19.27;;;19.60;99.90;;;;;;5031116;28;20185;-88
2023/08/25 04:05:48;;;;;;;35.10;20.43;;;19.40;99.90;;;;;;5032074;28;20217;-84
2023/08/25 04:08:14;;;;;;;31.87;19.20;;;19.30;99.90;;;;;;5060277;28;20233;-91
2023/08/25 04:10:43;;;;;;;33.00;18.03;;;19.30;99.90;;;;;;5069041;28;20687;-90
2023/08/25 04:13:09;;;;;;;26.57;17.33;;;19.20;99.90;;;;;;5069128;28;20209;-91
2023/08/25 04:15:38;;;;;;;26.03;15.83;;;19.20;99.90;;;;;;5034952;28;20227;-87
2023/08/25 04:18:05;;;;;;;36.97;14.63;;;19.10;99.90;;;;;;5069375;28;20173;-89
2023/08/25 04:20:31;;;;;;;28.00;16.10;;;19.00;99.90;;;;;;5068751;28;20209;-89
2023/08/25 04:22:57;;;;;;;29.17;16.63;;;19.00;99.90;;;;;;5068692;28;20241;-92
2023/08/25 04:25:23;;;;;;;26.23;18.97;;;19.00;99.90;;;;;;5034613;28;20209;-91
2023/08/25 04:27:48;;;;;;;36.13;17.53;;;19.10;99.90;;;;;;5051038;28;20237;-90
2023/08/25 04:30:14;;;;;;;27.57;17.90;;;19.10;99.90;;;;;;5069092;28;20641;-89
2023/08/25 04:32:40;;;;;;;29.07;17.70;;;19.00;99.90;;;;;;5050457;28;20814;-88
2023/08/25 04:35:07;;;;;;;26.60;17.03;;;19.10;99.90;;;;;;5068280;28;20290;-90
2023/08/25 04:37:33;;;;;;;31.33;16.43;;;19.00;99.90;;;;;;5051165;28;20244;-89
2023/08/25 04:40:00;;;;;;;26.27;16.43;;;19.00;99.90;;;;;;5050721;28;20236;-85
2023/08/25 04:42:26;;;;;;;28.63;17.03;;;19.00;99.90;;;;;;5068539;28;20225;-89
2023/08/25 04:44:52;;;;;;;28.60;16.60;;;19.00;99.90;;;;;;5051492;28;20238;-89
2023/08/25 04:47:17;;;;;;;33.80;17.23;;;18.90;99.90;;;;;;5068600;28;20460;-89
2023/08/25 04:49:43;;;;;;;28.67;17.53;;;18.90;99.90;;;;;;5068190;28;20468;-90
2023/08/25 04:52:09;;;;;;;32.57;18.27;;;18.90;99.90;;;;;;5050406;28;20819;-88
2023/08/25 04:54:35;;;;;;;27.03;16.47;;;18.90;99.90;;;;;;5068305;28;20173;-90
2023/08/25 04:57:00;;;;;;;23.33;15.07;;;18.90;99.90;;;;;;5051568;28;20264;-91
2023/08/25 04:59:26;;;;;;;22.90;14.37;;;18.90;99.90;;;;;;5050535;28;20213;-89
2023/08/25 05:01:52;;;;;;;21.40;14.37;;;18.90;99.90;;;;;;5050194;28;20213;-85
2023/08/25 05:04:18;;;;;;;28.37;14.87;;;18.90;99.90;;;;;;5068089;28;20220;-86
2023/08/25 05:06:43;;;;;;;19.13;14.53;;;18.80;99.90;;;;;;5050826;28;20208;-92
2023/08/25 05:09:09;;;;;;;22.13;13.87;;;18.90;99.90;;;;;;5068527;28;20217;-89
2023/08/25 05:11:35;;;;;;;20.30;14.13;;;18.90;99.90;;;;;;5050689;28;20228;-90
2023/08/25 05:14:01;;;;;;;24.50;13.87;;;19.00;99.90;;;;;;5050655;28;20215;-91
2023/08/25 05:16:27;;;;;;;20.13;13.47;;;19.00;99.90;;;;;;5053736;28;20220;-86
2023/08/25 05:18:53;;;;;;;19.93;14.20;;;19.00;99.90;;;;;;5054603;28;20304;-87
2023/08/25 05:21:18;;;;;;;16.53;12.17;;;19.10;99.90;;;;;;5072877;28;20259;-88
2023/08/25 05:23:48;;;;;;;15.80;11.03;;;19.10;99.90;;;;;;5039288;28;20529;-94
2023/08/25 05:26:14;;;;;;;17.73;11.10;;;19.10;99.90;;;;;;5055526;28;20205;-89
2023/08/25 05:28:40;;;;;;;14.90;10.47;;;19.10;99.90;;;;;;5054611;28;20213;-90
2023/08/25 05:31:08;;;;;;;13.67;10.07;;;19.10;99.90;;;;;;5072167;28;20225;-94
2023/08/25 05:33:35;;;;;;;18.70;11.83;;;19.10;99.90;;;;;;5054460;28;20411;-92
2023/08/25 05:36:02;;;;;;;19.10;11.10;;;19.10;99.90;;;;;;5072752;28;20660;-92
2023/08/25 05:38:28;;;;;;;21.93;12.07;;;19.10;99.90;;;;;;5038089;28;20267;-91
2023/08/25 05:40:55;;;;;;;22.07;11.57;;;19.10;99.90;;;;;;5038090;28;20221;-90
2023/08/25 05:43:21;;;;;;;13.53;11.57;;;19.10;99.90;;;;;;5071527;28;20684;-93
2023/08/25 05:45:47;;;;;;;18.20;12.90;;;19.20;99.90;;;;;;5038258;28;20243;-89
2023/08/25 05:48:12;;;;;;;16.97;11.40;;;19.20;99.90;;;;;;5054997;28;20651;-91
2023/08/25 05:50:38;;;;;;;20.17;12.63;;;19.30;99.90;;;;;;5038019;28;20221;-87
2023/08/25 05:53:04;;;;;;;22.10;13.53;;;19.40;99.90;;;;;;5054394;28;20213;-92
2023/08/25 05:55:30;;;;;;;28.70;15.10;;;19.60;99.90;;;;;;5036952;28;20548;-89
2023/08/25 05:57:56;;;;;;;25.87;14.90;;;19.80;99.90;;;;;;5071734;28;20270;-90
2023/08/25 06:00:21;;;;;;;21.47;14.47;;;19.90;99.90;;;;;;5071410;28;20542;-90
2023/08/25 06:02:47;;;;;;;19.27;14.07;;;20.00;99.90;;;;;;5072425;28;20185;-93
2023/08/25 06:05:13;;;;;;;28.53;15.47;;;20.00;99.90;;;;;;5053897;28;20213;-88
2023/08/25 06:07:39;;;;;;;24.87;16.00;;;20.20;99.90;;;;;;5054177;28;20257;-89
2023/08/25 06:10:05;;;;;;;30.30;16.17;;;20.40;99.90;;;;;;5053256;28;20584;-88
2023/08/25 06:12:31;;;;;;;35.20;19.97;;;21.20;99.90;;;;;;5053099;28;20201;-88
2023/08/25 06:14:56;;;;;;;39.17;19.73;;;22.10;99.90;;;;;;5036192;28;20234;-85
2023/08/25 06:17:22;;;;;;;26.47;16.70;;;22.70;99.90;;;;;;5053099;28;20274;-90
2023/08/25 06:19:48;;;;;;;25.58;16.55;;;23.90;99.90;;;;;;5036639;28;20249;-89
2023/08/25 06:22:13;;;;;;;25.50;14.90;;;24.40;99.90;;;;;;5036657;28;20213;-92
2023/08/25 06:24:39;;;;;;;27.63;13.23;;;24.80;99.90;;;;;;5071250;28;20205;-92
2023/08/25 06:27:05;;;;;;;18.48;13.38;;;25.10;99.90;;;;;;5071918;28;20174;-94
2023/08/25 06:29:30;;;;;;;22.67;13.52;;;24.90;99.90;;;;;;5036684;28;20217;-88
2023/08/25 06:31:57;;;;;;;22.13;13.73;;;24.20;99.90;;;;;;5053402;28;20304;-86
2023/08/25 06:34:22;;;;;;;22.25;14.65;;;23.50;99.90;;;;;;5071717;28;20209;-88
2023/08/25 06:36:48;;;;;;;21.92;12.27;;;22.60;99.90;;;;;;5053827;28;20208;-89
2023/08/25 06:39:16;;;;;;;20.30;10.43;;;22.10;99.90;;;;;;5054123;28;20284;-89
2023/08/25 06:41:42;;;;;;;17.63;10.77;;;21.50;99.90;;;;;;5053744;28;20250;-89
2023/08/25 06:44:08;;;;;;;22.98;10.95;;;21.30;99.90;;;;;;5037276;28;20300;-91
2023/08/25 06:46:34;;;;;;;20.08;11.30;;;21.10;99.90;;;;;;5070951;28;20754;-90
2023/08/25 06:48:59;;;;;;;23.67;11.98;;;21.10;99.90;;;;;;5070199;28;20217;-89
2023/08/25 06:51:25;;;;;;;19.73;10.90;;;21.10;99.90;;;;;;5052735;28;20555;-88
2023/08/25 06:53:51;;;;;;;19.73;10.57;;;21.30;99.90;;;;;;5052974;28;20634;-90
2023/08/25 06:56:18;;;;;;;14.27;9.30;;;21.80;99.90;;;;;;5052229;28;20341;-91
2023/08/25 06:58:43;;;;;;;19.83;9.27;;;22.00;99.90;;;;;;5069033;28;20735;-91
2023/08/25 07:01:10;;;;;;;17.93;8.80;;;22.60;99.90;;;;;;5052459;28;20829;-88
2023/08/25 07:03:36;;;;;;;22.67;11.35;;;23.40;99.90;;;;;;5053089;28;20208;-92
2023/08/25 07:06:03;;;;;;;11.98;8.68;;;23.70;99.90;;;;;;5052309;28;20169;-91
2023/08/25 07:08:28;;;;;;;14.27;9.65;;;23.70;99.90;;;;;;5052652;28;20312;-92
2023/08/25 07:10:54;;;;;;;15.90;10.15;;;23.60;99.90;;;;;;5070249;28;20753;-92
2023/08/25 07:13:20;;;;;;;12.60;8.23;;;23.40;99.90;;;;;;5052499;28;20257;-92
2023/08/25 07:15:46;;;;;;;17.98;9.07;;;23.20;99.90;;;;;;5052603;28;20288;-93
2023/08/25 07:18:11;;;;;;;18.25;9.20;;;23.00;99.90;;;;;;5070880;28;20177;-92
2023/08/25 07:20:37;;;;;;;14.85;8.48;;;22.80;99.90;;;;;;5070168;28;20213;-93
2023/08/25 07:23:03;;;;;;;17.10;9.63;;;22.50;99.90;;;;;;5052670;28;20213;-92
2023/08/25 07:25:29;;;;;;;19.27;10.25;;;22.50;99.90;;;;;;5070201;28;20232;-93
2023/08/25 07:27:54;;;;;;;14.23;9.45;;;22.60;99.90;;;;;;5052487;28;20254;-90
2023/08/25 07:30:21;;;;;;;12.32;8.05;;;22.60;99.90;;;;;;5069805;28;20752;-91
2023/08/25 07:32:51;;;;;;;14.20;9.00;;;22.40;99.90;;;;;;5052974;28;20178;-92
2023/08/25 07:35:16;;;;;;;14.02;9.45;;;21.90;99.90;;;;;;5069521;28;20291;-93
2023/08/25 07:37:42;;;;;;;15.15;9.10;;;21.70;99.90;;;;;;5051803;28;20658;-92
2023/08/25 07:40:10;;;;;;;16.38;10.05;;;21.50;99.90;;;;;;5068637;28;20654;-90
2023/08/25 07:42:36;;;;;;;16.60;9.90;;;21.50;99.90;;;;;;5035498;28;20269;-91
2023/08/25 07:45:02;;;;;;;13.40;9.82;;;21.40;99.90;;;;;;5035869;28;20209;-87
2023/08/25 07:47:28;;;;;;;13.47;8.50;;;21.20;99.90;;;;;;5051721;28;20213;-92
2023/08/25 07:49:56;;;;;;;17.50;9.63;;;21.30;99.90;;;;;;5069131;28;20799;-89
2023/08/25 07:52:22;;;;;;;19.30;9.20;;;21.40;99.90;;;;;;5069110;28;20228;-91
2023/08/25 07:54:48;;;;;;;13.32;8.75;;;21.80;99.90;;;;;;5051601;28;20208;-90
2023/08/25 07:57:13;;;;;;;16.63;8.87;;;22.30;99.90;;;;;;5067342;28;20272;-89
2023/08/25 07:59:39;;;;;;;17.02;10.02;;;23.00;99.90;;;;;;5049780;28;20243;-90
2023/08/25 08:02:05;;;;;;;16.83;9.77;;;23.50;99.90;;;;;;5067319;28;20233;-90
2023/08/25 08:04:31;;;;;;;15.13;8.93;;;24.00;99.90;;;;;;5068063;28;20217;-89
2023/08/25 08:06:59;;;;;;;15.73;9.00;;;24.60;99.90;;;;;;5050572;28;20388;-90
2023/08/25 08:09:26;;;;;;;12.95;8.27;;;25.20;99.90;;;;;;5048432;28;20314;-93
2023/08/25 08:11:52;;;;;;;17.70;7.97;;;26.00;99.90;;;;;;5034389;28;20209;-89
2023/08/25 08:14:17;;;;;;;16.95;9.40;;;26.40;99.90;;;;;;5049391;28;20217;-92
2023/08/25 08:16:43;;;;;;;14.25;8.05;;;27.20;99.90;;;;;;5049812;28;20219;-92
2023/08/25 08:19:10;;;;;;;15.20;8.02;;;26.30;99.90;;;;;;5049160;28;20213;-91
2023/08/25 08:21:36;;;;;;;13.52;7.82;;;26.70;99.90;;;;;;5032983;28;20270;-90
2023/08/25 08:24:02;;;;;;;13.18;8.02;;;27.40;99.90;;;;;;5067354;28;20180;-90
2023/08/25 08:26:29;;;;;;;13.05;7.80;;;28.00;99.90;;;;;;5067809;28;20213;-92
2023/08/25 08:28:55;;;;;;;12.57;8.63;;;29.00;99.90;;;;;;5066707;28;20262;-86
2023/08/25 08:31:21;;;;;;;11.38;7.38;;;28.70;99.90;;;;;;5066705;28;20236;-90
2023/08/25 08:33:47;;;;;;;12.27;8.02;;;28.20;99.90;;;;;;5067673;28;20224;-88
2023/08/25 08:36:16;;;;;;;11.98;6.72;;;27.10;99.90;;;;;;5050637;28;20396;-92
2023/08/25 08:38:42;;;;;;;9.93;6.68;;;26.10;99.90;;;;;;5068781;28;20177;-88
2023/08/25 08:41:09;;;;;;;15.50;7.47;;;25.40;99.90;;;;;;5050175;28;20927;-89
2023/08/25 08:43:38;;;;;;;14.10;7.65;;;25.40;99.90;;;;;;5066893;28;20674;-89
2023/08/25 08:46:05;;;;;;;11.38;7.75;;;24.80;99.90;;;;;;5068534;28;20307;-87
2023/08/25 08:48:34;;;;;;;11.80;7.22;;;24.30;99.90;;;;;;5068819;28;20787;-88
2023/08/25 08:51:01;;;;;;;14.60;7.68;;;24.30;99.90;;;;;;5073559;28;20209;-89
2023/08/25 08:53:27;;;;;;;13.60;7.78;;;24.10;99.90;;;;;;5055332;28;20708;-92
2023/08/25 08:55:54;;;;;;;10.90;7.35;;;24.30;99.90;;;;;;5072484;28;20221;-90
2023/08/25 08:58:21;;;;;;;13.18;7.00;;;24.30;99.90;;;;;;5072718;28;20684;-90
2023/08/25 09:00:47;;;;;;;11.25;7.20;;;24.30;99.90;;;;;;5071979;28;20296;-90
2023/08/25 09:03:18;;;;;;;12.95;7.20;;;24.50;99.90;;;;;;5055351;28;20246;-91
2023/08/25 09:05:44;;;;;;;12.45;7.40;;;24.10;99.90;;;;;;5056162;28;20162;-90
2023/08/25 09:08:12;;;;;;;11.60;7.53;;;24.20;99.90;;;;;;5035175;28;20241;-90
2023/08/25 09:10:38;;;;;;;15.43;7.97;;;24.40;99.90;;;;;;5018444;28;20218;-87
2023/08/25 09:13:03;;;;;;;12.32;7.75;;;23.70;99.90;;;;;;5034399;28;20234;-87
2023/08/25 09:15:32;;;;;;;16.65;8.45;;;23.80;99.90;;;;;;5033624;28;20323;-86
2023/08/25 09:18:08;;;;;;;17.27;7.68;;;23.60;99.90;;;;;;5053034;28;20186;-89
2023/08/25 09:20:38;;;;;;;12.98;6.82;;;23.60;99.90;;;;;;5015590;28;20218;-90
2023/08/25 09:23:04;;;;;;;13.07;7.45;;;23.90;99.90;;;;;;5014976;28;20833;-90
2023/08/25 09:25:32;;;;;;;14.20;7.38;;;24.30;99.90;;;;;;5032110;28;20226;-88
2023/08/25 09:28:03;;;;;;;17.83;8.80;;;24.60;99.90;;;;;;5031673;28;20242;-92
2023/08/25 09:30:47;;;;;;;16.27;7.78;;;25.50;99.90;;;;;;5018434;28;20211;-91
2023/08/25 09:33:13;;;;;;;13.15;7.82;;;27.00;99.90;;;;;;5034466;28;20170;-88
2023/08/25 09:35:40;;;;;;;11.95;7.50;;;28.60;99.90;;;;;;5035327;28;20185;-86
2023/08/25 09:38:06;;;;;;;12.55;7.43;;;29.80;99.90;;;;;;5051762;28;20253;-85
2023/08/25 09:40:32;;;;;;;11.38;6.95;;;31.30;99.90;;;;;;5052514;28;20210;-87
2023/08/25 09:43:02;;;;;;;12.18;7.30;;;31.50;99.90;;;;;;5034557;28;20217;-89
2023/08/25 09:45:30;;;;;;;11.07;7.03;;;31.70;99.90;;;;;;5017355;28;20220;-89
2023/08/25 09:48:13;;;;;;;14.48;7.10;;;31.30;99.90;;;;;;5052375;28;20415;-89
2023/08/25 09:50:42;;;;;;;11.18;7.60;;;30.30;99.90;;;;;;5031959;28;20206;-88
2023/08/25 09:53:11;;;;;;;9.55;6.10;;;29.10;99.90;;;;;;5042852;28;20713;-86
2023/08/25 09:55:38;;;;;;;12.45;7.03;;;28.70;99.90;;;;;;5051335;28;20214;-88
2023/08/25 09:58:06;;;;;;;11.98;7.10;;;27.30;99.90;;;;;;5034452;28;20233;-88
2023/08/25 10:00:34;;;;;;;11.25;6.22;;;26.30;99.90;;;;;;5050611;28;20348;-89
2023/08/25 10:03:01;;;;;;;12.68;6.90;;;25.80;99.90;;;;;;5034414;28;20285;-91
2023/08/25 10:05:29;;;;;;;11.30;7.20;;;25.20;99.90;;;;;;5033900;28;20671;-91
2023/08/25 10:07:55;;;;;;;9.77;5.85;;;24.50;99.90;;;;;;5034161;28;20284;-91
2023/08/25 10:10:23;;;;;;;12.38;5.60;;;24.70;99.90;;;;;;5052351;28;20904;-88
2023/08/25 10:12:55;;;;;;;8.98;6.88;;;24.70;99.90;;;;;;5037525;28;20232;-90
2023/08/25 10:15:22;;;;;;;14.60;5.68;;;24.70;99.90;;;;;;5069007;28;20774;-90
2023/08/25 10:17:49;;;;;;;7.95;5.32;;;24.30;99.90;;;;;;5052774;28;20620;-90
2023/08/25 10:20:16;;;;;;;11.82;6.32;;;24.00;99.90;;;;;;5070902;28;20209;-91
2023/08/25 10:22:47;;;;;;;9.80;6.28;;;23.80;99.90;;;;;;5071522;28;20809;-88
2023/08/25 10:25:15;;;;;;;11.60;6.45;;;23.60;99.90;;;;;;5072068;28;20815;-87
2023/08/25 10:27:41;;;;;;;9.40;5.78;;;23.70;99.90;;;;;;5053896;28;20239;-90
2023/08/25 10:30:08;;;;;;;12.80;5.63;;;23.70;99.90;;;;;;5053332;28;20170;-91
2023/08/25 10:32:58;;;;;;;8.40;5.60;;;23.60;99.90;;;;;;5053974;28;20256;-88
2023/08/25 10:35:53;;;;;;;11.55;5.68;;;23.30;99.90;;;;;;5053484;28;20216;-90
2023/08/25 10:38:19;;;;;;;8.23;5.97;;;23.30;99.90;;;;;;5061450;28;20235;-90
2023/08/25 10:41:09;;;;;;;8.30;4.95;;;22.90;99.90;;;;;;5070492;28;20217;-89
2023/08/25 10:43:37;;;;;;;8.30;5.65;;;22.60;99.90;;;;;;5055116;28;20209;-90
2023/08/25 10:46:07;;;;;;;7.55;5.35;;;22.80;99.90;;;;;;5069625;28;20224;-88
2023/08/25 10:48:33;;;;;;;5.35;4.85;;;23.00;99.90;;;;;;5052450;28;20221;-87
2023/08/25 10:51:09;;;;;;;6.47;4.80;;;23.00;99.90;;;;;;5071410;28;20206;-89
2023/08/25 10:53:39;;;;;;;6.38;4.68;;;23.50;99.90;;;;;;5070169;28;20193;-86
2023/08/25 10:56:17;;;;;;;6.20;4.57;;;23.50;99.90;;;;;;5070515;28;20545;-92
2023/08/25 10:59:02;;;;;;;5.97;4.15;;;23.70;99.90;;;;;;5052696;28;20592;-89
2023/08/25 11:01:37;;;;;;;8.18;4.57;;;23.80;99.90;;;;;;5052343;28;20220;-90
2023/08/25 11:04:04;;;;;;;5.03;3.83;;;24.40;99.90;;;;;;5052367;28;20225;-92
2023/08/25 11:06:50;;;;;;;6.60;4.68;;;25.10;99.90;;;;;;5069977;28;20209;-90
2023/08/25 11:09:18;;;;;;;6.47;4.50;;;25.40;99.90;;;;;;5059793;28;20279;-89
2023/08/25 11:11:46;;;;;;;6.95;4.68;;;25.20;99.90;;;;;;5050041;28;20656;-90
2023/08/25 11:14:14;;;;;;;10.38;5.05;;;25.40;99.90;;;;;;5048740;28;20246;-88
2023/08/25 11:16:41;;;;;;;7.32;5.22;;;26.10;99.90;;;;;;5032209;28;20292;-93
2023/08/25 11:19:11;;;;;;;9.40;4.93;;;26.30;99.90;;;;;;5031890;28;20659;-90
2023/08/25 11:21:37;;;;;;;7.43;4.65;;;27.20;99.90;;;;;;5048736;28;20214;-88
2023/08/25 11:24:03;;;;;;;8.20;5.07;;;26.90;99.90;;;;;;5031751;28;20183;-90
2023/08/25 11:26:30;;;;;;;6.70;4.70;;;27.10;99.90;;;;;;5031259;28;20217;-87
2023/08/25 11:28:56;;;;;;;7.70;5.47;;;26.90;99.90;;;;;;5031333;28;20733;-89
2023/08/25 11:31:23;;;;;;;7.35;5.13;;;26.80;99.90;;;;;;5014558;28;20225;-89
2023/08/25 11:33:51;;;;;;;8.38;5.13;;;25.90;99.90;;;;;;5031289;28;20210;-88
2023/08/25 11:36:17;;;;;;;12.27;5.45;;;26.00;99.90;;;;;;5031120;28;20202;-90
2023/08/25 11:38:50;;;;;;;11.13;5.50;;;25.60;99.90;;;;;;5031725;28;20185;-85
2023/08/25 11:41:17;;;;;;;9.60;5.00;;;25.80;99.90;;;;;;5014249;28;20437;-89
2023/08/25 11:43:46;;;;;;;8.82;5.85;;;25.80;99.90;;;;;;5048030;28;20209;-88
2023/08/25 11:46:15;;;;;;;9.73;5.93;;;25.60;99.90;;;;;;5048695;28;20213;-89
2023/08/25 11:48:41;;;;;;;9.57;5.32;;;25.40;99.90;;;;;;5031257;28;20201;-89
2023/08/25 11:51:17;;;;;;;11.80;5.88;;;25.00;99.90;;;;;;5031208;28;20702;-85
2023/08/25 11:53:45;;;;;;;10.82;6.15;;;24.40;99.90;;;;;;5049376;28;20678;-90
2023/08/25 11:56:15;;;;;;;8.00;5.72;;;24.50;99.90;;;;;;5030760;28;20214;-91
2023/08/25 11:58:42;;;;;;;7.82;5.15;;;25.00;99.90;;;;;;5030807;28;20210;-88
2023/08/25 12:01:10;;;;;;;6.95;5.32;;;25.10;99.90;;;;;;5031054;28;20240;-87
2023/08/25 12:03:42;;;;;;;8.95;5.72;;;24.50;99.90;;;;;;5014446;28;20216;-89
2023/08/25 12:06:09;;;;;;;11.88;5.00;;;24.70;99.90;;;;;;5030887;28;20175;-91
2023/08/25 12:08:36;;;;;;;9.57;5.90;;;25.00;99.90;;;;;;5018774;28;20234;-90
2023/08/25 12:11:04;;;;;;;11.43;5.60;;;25.50;99.90;;;;;;5050937;28;20324;-87
2023/08/25 12:13:38;;;;;;;11.15;6.88;;;25.60;99.90;;;;;;5050739;28;20476;-93
2023/08/25 12:16:04;;;;;;;10.15;6.28;;;25.70;99.90;;;;;;5050777;28;20208;-95
2023/08/25 12:18:35;;;;;;;9.82;6.32;;;25.80;99.90;;;;;;5050873;28;20209;-91
2023/08/25 12:21:05;;;;;;;9.13;5.35;;;25.40;99.90;;;;;;5034477;28;20192;-86
2023/08/25 12:23:38;;;;;;;6.75;4.55;;;25.30;99.90;;;;;;5067733;28;20194;-87
2023/08/25 12:26:14;;;;;;;6.88;4.50;;;24.50;99.90;;;;;;5051459;28;20769;-88
2023/08/25 12:28:43;;;;;;;5.13;4.07;;;24.10;99.90;;;;;;5050411;28;20768;-91
2023/08/25 12:31:08;;;;;;;5.32;4.20;;;24.10;99.90;;;;;;5067548;28;20240;-86
2023/08/25 12:33:34;;;;;;;6.75;4.45;;;24.00;99.90;;;;;;5067602;28;20232;-86
2023/08/25 12:36:00;;;;;;;8.63;4.60;;;24.00;99.90;;;;;;5068757;28;20205;-91